createdAt,value
2018-01-05T00:02:28.348Z,8.32
2018-01-05T00:04:56.075Z,7.90
2018-01-05T00:07:23.796Z,6.35
2018-01-05T00:09:51.587Z,6.28
2018-01-05T00:12:19.311Z,4.85
2018-01-05T00:14:47.034Z,4.62
2018-01-05T00:17:14.876Z,4.87
2018-01-05T00:19:42.612Z,6.45
2018-01-05T00:22:10.339Z,5.90
2018-01-05T00:24:38.131Z,4.03
2018-01-05T00:27:05.847Z,3.62
2018-01-05T00:29:33.580Z,3.92
2018-01-05T00:32:01.380Z,3.75
2018-01-05T00:34:29.099Z,3.75
2018-01-05T00:36:57.584Z,3.83
2018-01-05T00:39:25.362Z,4.85
2018-01-05T00:41:53.081Z,6.72
2018-01-05T00:44:21.571Z,6.00
2018-01-05T00:46:49.360Z,8.82
2018-01-05T00:49:17.079Z,5.78
2018-01-05T00:51:44.798Z,7.22
2018-01-05T00:54:12.575Z,4.12
2018-01-05T00:56:40.299Z,9.93
2018-01-05T00:59:08.020Z,7.18
2018-01-05T01:01:35.799Z,3.80
2018-01-05T01:04:04.312Z,4.85
2018-01-05T01:06:32.052Z,5.05
2018-01-05T01:08:59.833Z,5.15
2018-01-05T01:11:27.588Z,5.20
2018-01-05T01:13:55.315Z,4.60
2018-01-05T01:16:23.867Z,5.30
2018-01-05T01:18:51.597Z,7.57
2018-01-05T01:21:19.315Z,5.82
2018-01-05T01:23:47.861Z,7.10
2018-01-05T01:26:15.591Z,12.37
2018-01-05T01:28:43.312Z,7.07
2018-01-05T01:31:11.090Z,9.27
2018-01-05T01:33:39.579Z,14.20
2018-01-05T01:36:07.301Z,9.13
2018-01-05T01:38:35.283Z,7.62
2018-01-05T01:41:03.036Z,11.63
2018-01-05T01:43:30.767Z,8.90
2018-01-05T01:45:59.311Z,5.68
2018-01-05T01:48:27.051Z,6.00
2018-01-05T01:50:54.772Z,7.93
2018-01-05T01:53:22.556Z,9.73
2018-01-05T01:55:50.275Z,7.90
2018-01-05T01:58:17.995Z,4.25
2018-01-05T02:00:46.540Z,3.00
2018-01-05T02:03:14.259Z,6.15
2018-01-05T02:05:41.983Z,3.53
2018-01-05T02:08:09.765Z,1.98
2018-01-05T02:10:38.252Z,2.72
2018-01-05T02:13:06.731Z,2.55
2018-01-05T02:15:35.273Z,2.45
2018-01-05T02:18:02.992Z,2.30
2018-01-05T02:20:30.716Z,2.42
2018-01-05T02:22:58.495Z,2.30
2018-01-05T02:25:27.003Z,2.45
2018-01-05T02:27:54.728Z,4.82
2018-01-05T02:30:23.272Z,3.10
2018-01-05T02:32:50.991Z,3.15
2018-01-05T02:35:18.709Z,3.35
2018-01-05T02:37:47.366Z,3.35
2018-01-05T02:40:15.092Z,3.45
2018-01-05T02:42:42.817Z,3.60
2018-01-05T02:45:10.594Z,3.22
2018-01-05T02:47:39.091Z,3.83
2018-01-05T02:50:06.815Z,3.28
2018-01-05T02:52:34.592Z,3.75
2018-01-05T02:55:03.083Z,5.32
2018-01-05T02:57:30.832Z,3.47
2018-01-05T02:59:59.369Z,3.83
2018-01-05T03:02:27.092Z,3.22
2018-01-05T03:04:54.816Z,4.18
2018-01-05T03:07:22.592Z,4.12
2018-01-05T03:09:51.099Z,5.85
2018-01-05T03:12:18.838Z,4.37
2018-01-05T03:14:47.385Z,4.18
2018-01-05T03:17:15.104Z,3.45
2018-01-05T03:19:42.847Z,5.30
2018-01-05T03:22:11.388Z,5.53
2018-01-05T03:24:39.112Z,3.58
2018-01-05T03:27:06.831Z,3.40
2018-01-05T03:29:35.380Z,3.75
2018-01-05T03:32:03.112Z,4.22
2018-01-05T03:34:30.831Z,4.18
2018-01-05T03:36:58.602Z,3.45
2018-01-05T03:39:26.336Z,4.80
2018-01-05T03:41:54.059Z,3.50
2018-01-05T03:44:21.841Z,5.03
2018-01-05T03:46:49.576Z,3.30
2018-01-05T03:49:17.303Z,4.62
2018-01-05T03:51:45.133Z,4.47
2018-01-05T03:54:12.856Z,7.32
2018-01-05T03:56:40.579Z,7.55
2018-01-05T03:59:08.355Z,3.58
2018-01-05T04:01:36.845Z,3.47
2018-01-05T04:04:05.336Z,5.87
2018-01-05T04:06:33.118Z,4.47
2018-01-05T04:09:00.853Z,4.35
2018-01-05T04:11:28.571Z,5.07
2018-01-05T04:13:56.350Z,3.62
2018-01-05T04:16:24.840Z,6.32
2018-01-05T04:18:53.324Z,3.65
2018-01-05T04:21:21.862Z,5.62
2018-01-05T04:23:49.593Z,8.25
2018-01-05T04:26:17.318Z,8.90
2018-01-05T04:28:45.866Z,5.37
2018-01-05T04:31:13.587Z,5.72
2018-01-05T04:33:41.303Z,5.72
2018-01-05T04:36:09.096Z,6.12
2018-01-05T04:38:36.822Z,5.32
2018-01-05T04:41:04.551Z,8.40
2018-01-05T04:43:32.343Z,4.50
2018-01-05T04:46:00.064Z,6.00
2018-01-05T04:48:28.546Z,6.15
2018-01-05T04:50:56.327Z,6.40
2018-01-05T04:53:24.052Z,7.30
2018-01-05T04:55:51.781Z,7.10
2018-01-05T04:58:20.324Z,7.18
2018-01-05T05:00:48.051Z,6.75
2018-01-05T05:03:15.780Z,7.32
2018-01-05T05:05:43.576Z,7.00
2018-01-05T05:08:11.294Z,6.85
2018-01-05T05:10:39.019Z,8.80
2018-01-05T05:13:06.802Z,7.25
2018-01-05T05:15:34.531Z,6.28
2018-01-05T05:18:02.251Z,8.82
2018-01-05T05:20:30.799Z,9.32
2018-01-05T05:22:58.529Z,7.20
2018-01-05T05:25:26.304Z,9.52
2018-01-05T05:27:54.078Z,6.75
2018-01-05T05:30:21.799Z,6.25
2018-01-05T05:32:49.530Z,9.38
2018-01-05T05:35:17.311Z,7.95
2018-01-05T05:37:45.798Z,9.65
2018-01-05T05:40:13.520Z,6.80
2018-01-05T05:42:41.454Z,10.38
2018-01-05T05:45:09.185Z,8.20
2018-01-05T05:47:36.912Z,8.13
2018-01-05T05:50:04.691Z,8.88
2018-01-05T05:52:33.183Z,10.23
2018-01-05T05:55:01.667Z,9.60
2018-01-05T05:57:29.443Z,7.87
2018-01-05T05:59:57.172Z,7.20
2018-01-05T06:02:25.663Z,9.45
2018-01-05T06:04:53.484Z,11.40
2018-01-05T06:07:21.210Z,8.52
2018-01-05T06:09:48.933Z,7.20
2018-01-05T06:12:17.492Z,5.80
2018-01-05T06:14:46.444Z,9.10
2018-01-05T06:17:14.163Z,5.72
2018-01-05T06:19:42.732Z,7.57
2018-01-05T06:22:10.469Z,8.45
2018-01-05T06:24:38.194Z,8.77
2018-01-05T06:27:05.962Z,8.77
2018-01-05T06:29:33.680Z,7.43
2018-01-05T06:32:01.408Z,13.23
2018-01-05T06:34:29.187Z,9.88
2018-01-05T06:36:56.905Z,9.75
2018-01-05T06:39:24.627Z,6.80
2018-01-05T06:41:52.403Z,8.25
2018-01-05T06:44:20.896Z,14.07
2018-01-05T06:46:48.615Z,7.22
2018-01-05T06:49:16.396Z,7.22
2018-01-05T06:51:44.884Z,6.82
2018-01-05T06:54:13.371Z,6.85
2018-01-05T06:56:41.150Z,8.65
2018-01-05T06:59:08.874Z,10.32
2018-01-05T07:01:36.603Z,9.90
2018-01-05T07:04:04.378Z,7.20
2018-01-05T07:06:32.104Z,8.48
2018-01-05T07:08:59.946Z,11.68
2018-01-05T07:11:27.742Z,9.60
2018-01-05T07:13:55.465Z,9.77
2018-01-05T07:16:23.187Z,6.82
2018-01-05T07:18:51.023Z,9.23
2018-01-05T07:21:18.808Z,13.55
2018-01-05T07:23:46.615Z,10.80
2018-01-05T07:26:14.456Z,14.77
2018-01-05T07:28:42.194Z,11.80
2018-01-05T07:31:09.924Z,11.05
2018-01-05T07:33:37.739Z,12.77
2018-01-05T07:36:05.461Z,10.57
2018-01-05T07:38:33.196Z,12.32
2018-01-05T07:41:00.971Z,9.02
2018-01-05T07:43:28.703Z,14.15
2018-01-05T07:45:57.196Z,10.63
2018-01-05T07:48:24.977Z,10.52
2018-01-05T07:50:52.704Z,7.53
2018-01-05T07:53:21.193Z,9.60
2018-01-05T07:55:48.996Z,12.57
2018-01-05T07:58:16.722Z,13.40
2018-01-05T08:00:44.448Z,10.63
2018-01-05T08:03:12.477Z,16.92
2018-01-05T08:05:40.208Z,17.33
2018-01-05T08:08:08.091Z,12.20
2018-01-05T08:10:35.912Z,11.05
2018-01-05T08:13:04.399Z,9.82
2018-01-05T08:15:32.886Z,11.98
2018-01-05T08:18:00.676Z,13.23
2018-01-05T08:20:28.403Z,15.95
2018-01-05T08:22:56.891Z,13.93
2018-01-05T08:25:24.675Z,10.63
2018-01-05T08:27:52.405Z,13.18
2018-01-05T08:30:20.894Z,13.57
2018-01-05T08:32:48.702Z,11.60
2018-01-05T08:35:16.442Z,13.55
2018-01-05T08:37:44.162Z,10.50
2018-01-05T08:40:12.716Z,10.43
2018-01-05T08:42:40.451Z,57.35
2018-01-05T08:45:08.186Z,41.53
2018-01-05T08:47:35.971Z,17.73
2018-01-05T08:50:03.699Z,20.25
2018-01-05T08:52:31.455Z,14.55
2018-01-05T08:55:00.017Z,12.43
2018-01-05T08:57:27.756Z,14.40
2018-01-05T08:59:55.641Z,14.48
2018-01-05T09:02:23.430Z,14.30
2018-01-05T09:04:51.156Z,11.98
2018-01-05T09:07:18.879Z,10.75
2018-01-05T09:09:46.704Z,10.38
2018-01-05T09:12:15.192Z,9.48
2018-01-05T09:14:43.687Z,12.88
2018-01-05T09:17:11.466Z,9.82
2018-01-05T09:19:39.199Z,13.23
2018-01-05T09:22:06.923Z,11.18
2018-01-05T09:24:34.714Z,19.40
2018-01-05T09:27:03.207Z,13.52
2018-01-05T09:29:30.936Z,11.25
2018-01-05T09:31:58.721Z,10.73
2018-01-05T09:34:26.454Z,15.27
2018-01-05T09:36:54.186Z,9.25
2018-01-05T09:39:21.967Z,12.20
2018-01-05T09:41:49.700Z,9.77
2018-01-05T09:44:17.427Z,6.62
2018-01-05T09:46:45.212Z,11.57
2018-01-05T09:49:12.951Z,7.70
2018-01-05T09:51:40.683Z,8.65
2018-01-05T09:54:08.459Z,9.10
2018-01-05T09:56:36.945Z,8.48
2018-01-05T09:59:05.447Z,12.43
2018-01-05T10:01:33.229Z,10.90
2018-01-05T10:04:00.950Z,8.95
2018-01-05T10:06:29.462Z,11.73
2018-01-05T10:08:57.246Z,8.25
2018-01-05T10:11:24.986Z,11.05
2018-01-05T10:13:53.053Z,10.25
2018-01-05T10:16:20.827Z,8.98
2018-01-05T10:18:49.324Z,15.70
2018-01-05T10:21:17.055Z,9.13
2018-01-05T10:23:44.845Z,8.25
2018-01-05T10:26:13.365Z,6.40
2018-01-05T10:28:41.095Z,15.70
2018-01-05T10:31:08.890Z,14.27
2018-01-05T10:33:36.635Z,21.05
2018-01-05T10:36:05.126Z,15.43
2018-01-05T10:38:33.705Z,32.20
2018-01-05T10:41:02.212Z,19.05
2018-01-05T10:43:29.938Z,15.82
2018-01-05T10:45:58.492Z,14.90
2018-01-05T10:48:26.237Z,25.62
2018-01-05T10:50:53.970Z,25.35
2018-01-05T10:53:21.761Z,28.17
2018-01-05T10:55:49.509Z,18.70
2018-01-05T10:58:17.239Z,17.33
2018-01-05T11:00:45.787Z,22.85
2018-01-05T11:03:13.519Z,14.93
2018-01-05T11:05:41.254Z,11.65
2018-01-05T11:08:09.039Z,19.42
2018-01-05T11:10:36.792Z,14.95
2018-01-05T11:13:04.540Z,13.73
2018-01-05T11:15:32.339Z,11.45
2018-01-05T11:18:00.071Z,5.90
2018-01-05T11:20:27.796Z,7.97
2018-01-05T11:22:56.340Z,7.80
2018-01-05T11:25:24.064Z,7.53
2018-01-05T11:27:51.791Z,11.80
2018-01-05T11:30:19.587Z,9.02
2018-01-05T11:32:47.351Z,11.35
2018-01-05T11:35:15.076Z,9.75
2018-01-05T11:37:42.859Z,8.75
2018-01-05T11:40:10.600Z,9.70
2018-01-05T11:42:38.327Z,8.35
2018-01-05T11:45:06.118Z,8.88
2018-01-05T11:47:33.849Z,10.55
2018-01-05T11:50:01.591Z,11.95
2018-01-05T11:52:29.394Z,13.48
2018-01-05T11:54:57.218Z,14.27
2018-01-05T11:57:25.040Z,10.85
2018-01-05T11:59:53.598Z,10.48
2018-01-05T12:02:21.327Z,9.13
2018-01-05T12:04:49.079Z,7.70
2018-01-05T12:07:16.931Z,9.35
2018-01-05T12:09:44.683Z,9.00
2018-01-05T12:12:12.463Z,11.82
2018-01-05T12:14:40.463Z,10.23
2018-01-05T12:17:08.309Z,12.98
2018-01-05T12:19:36.067Z,11.10
2018-01-05T12:22:03.924Z,10.00
2018-01-05T12:24:31.680Z,12.43
2018-01-05T12:26:59.446Z,9.32
2018-01-05T12:29:27.260Z,8.52
2018-01-05T12:31:54.991Z,9.98
2018-01-05T12:34:22.720Z,11.75
2018-01-05T12:36:50.491Z,7.30
2018-01-05T12:39:19.408Z,7.28
2018-01-05T12:41:47.140Z,8.63
2018-01-05T12:44:14.922Z,11.30
2018-01-05T12:46:42.647Z,8.18
2018-01-05T12:49:10.371Z,7.95
2018-01-05T12:51:38.175Z,8.75
2018-01-05T12:54:05.989Z,14.27
2018-01-05T12:56:33.712Z,5.78
2018-01-05T12:59:01.647Z,9.13
2018-01-05T13:01:30.132Z,6.80
2018-01-05T13:03:57.860Z,5.43
2018-01-05T13:06:25.792Z,5.95
2018-01-05T13:08:53.514Z,6.72
2018-01-05T13:11:22.021Z,6.45
2018-01-05T13:13:49.797Z,6.07
2018-01-05T13:16:17.701Z,9.18
2018-01-05T13:18:45.427Z,10.90
2018-01-05T13:21:13.210Z,5.40
2018-01-05T13:23:40.931Z,6.68
2018-01-05T13:26:08.672Z,4.10
2018-01-05T13:28:36.452Z,6.95
2018-01-05T13:31:05.142Z,7.95
2018-01-05T13:33:32.955Z,8.50
2018-01-05T13:36:00.731Z,7.40
2018-01-05T13:38:29.212Z,7.15
2018-01-05T13:40:57.716Z,6.45
2018-01-05T13:43:25.616Z,7.80
2018-01-05T13:45:53.349Z,5.00
2018-01-05T13:48:21.072Z,4.82
2018-01-05T13:50:49.643Z,6.68
2018-01-05T13:53:18.149Z,4.70
2018-01-05T13:55:45.893Z,6.75
2018-01-05T13:58:14.437Z,6.60
2018-01-05T14:00:42.155Z,5.07
2018-01-05T14:03:09.872Z,6.15
2018-01-05T14:05:37.652Z,6.60
2018-01-05T14:08:06.145Z,7.85
2018-01-05T14:10:34.636Z,4.25
2018-01-05T14:13:02.647Z,5.43
2018-01-05T14:15:30.376Z,4.20
2018-01-05T14:17:58.100Z,8.65
2018-01-05T14:20:26.642Z,5.93
2018-01-05T14:22:54.367Z,5.18
2018-01-05T14:25:22.103Z,5.93
2018-01-05T14:27:49.911Z,7.53
2018-01-05T14:30:17.636Z,6.45
2018-01-05T14:32:46.124Z,6.97
2018-01-05T14:35:13.900Z,8.38
2018-01-05T14:37:42.415Z,10.00
2018-01-05T14:40:10.140Z,8.70
2018-01-05T14:42:37.937Z,12.43
2018-01-05T14:45:05.667Z,12.48
2018-01-05T14:47:33.394Z,11.27
2018-01-05T14:50:01.951Z,6.22
2018-01-05T14:52:29.736Z,8.10
2018-01-05T14:54:58.244Z,12.07
2018-01-05T14:57:26.026Z,15.50
2018-01-05T14:59:53.757Z,15.18
2018-01-05T15:02:21.490Z,10.57
2018-01-05T15:04:49.323Z,13.68
2018-01-05T15:07:17.044Z,7.50
2018-01-05T15:09:44.771Z,8.25
2018-01-05T15:12:12.559Z,10.77
2018-01-05T15:14:41.052Z,12.80
2018-01-05T15:17:08.775Z,9.77
2018-01-05T15:19:36.552Z,8.02
2018-01-05T15:22:05.040Z,10.13
2018-01-05T15:24:33.527Z,8.13
2018-01-05T15:27:01.300Z,9.98
2018-01-05T15:29:29.027Z,7.95
2018-01-05T15:31:57.515Z,11.50
2018-01-05T15:34:25.361Z,9.60
2018-01-05T15:36:53.856Z,8.95
2018-01-05T15:39:22.351Z,12.10
2018-01-05T15:41:50.951Z,14.50
2018-01-05T15:44:18.667Z,9.35
2018-01-05T15:46:47.167Z,8.82
2018-01-05T15:49:14.951Z,14.90
2018-01-05T15:51:42.666Z,9.07
2018-01-05T15:54:10.437Z,6.95
2018-01-05T15:56:39.060Z,10.82
2018-01-05T15:59:06.784Z,10.18
2018-01-05T16:01:36.553Z,8.93
2018-01-05T16:04:05.312Z,8.88
2018-01-05T16:06:33.037Z,13.35
2018-01-05T16:09:01.580Z,13.93
2018-01-05T16:11:29.386Z,9.82
2018-01-05T16:13:57.140Z,8.52
2018-01-05T16:16:25.691Z,9.25
2018-01-05T16:18:54.197Z,9.88
2018-01-05T16:21:22.025Z,9.10
2018-01-05T16:23:49.752Z,6.62
2018-01-05T16:26:17.560Z,12.70
2018-01-05T16:28:45.295Z,9.65
2018-01-05T16:31:13.063Z,9.23
2018-01-05T16:33:41.189Z,10.48
2018-01-05T16:36:09.043Z,8.32
2018-01-05T16:38:37.538Z,13.62
2018-01-05T16:41:05.320Z,8.48
2018-01-05T16:43:33.985Z,12.18
2018-01-05T16:46:01.711Z,9.95
2018-01-05T16:48:29.499Z,10.45
2018-01-05T16:50:57.275Z,7.40
2018-01-05T16:53:25.085Z,10.85
2018-01-05T16:55:52.936Z,8.18
2018-01-05T16:58:22.133Z,6.65
2018-01-05T17:00:50.145Z,8.32
2018-01-05T17:03:19.986Z,10.80
2018-01-05T17:05:47.720Z,12.27
2018-01-05T17:08:15.632Z,7.22
2018-01-05T17:10:43.680Z,10.43
2018-01-05T17:13:11.497Z,10.13
2018-01-05T17:15:39.308Z,11.35
2018-01-05T17:18:07.241Z,15.32
2018-01-05T17:20:37.444Z,7.70
2018-01-05T17:23:06.539Z,13.90
2018-01-05T17:25:35.235Z,9.10
2018-01-05T17:28:03.740Z,8.88
2018-01-05T17:30:31.695Z,15.07
2018-01-05T17:32:59.618Z,15.00
2018-01-05T17:35:29.873Z,10.80
2018-01-05T17:37:58.436Z,10.05
2018-01-05T17:40:28.925Z,9.20
2018-01-05T17:42:57.935Z,11.40
2018-01-05T17:45:25.673Z,13.27
2018-01-05T17:47:53.471Z,11.38
2018-01-05T17:50:21.218Z,15.38
2018-01-05T17:52:48.949Z,11.52
2018-01-05T17:55:17.551Z,11.05
2018-01-05T17:57:45.280Z,11.77
2018-01-05T18:00:13.047Z,9.93
2018-01-05T18:02:40.832Z,12.90
2018-01-05T18:05:08.558Z,10.63
2018-01-05T18:07:36.301Z,11.45
2018-01-05T18:10:04.860Z,12.45
2018-01-05T18:12:32.595Z,15.07
2018-01-05T18:15:00.320Z,21.45
2018-01-05T18:17:28.132Z,15.18
2018-01-05T18:19:55.863Z,16.67
2018-01-05T18:22:23.592Z,16.30
2018-01-05T18:24:51.379Z,9.48
2018-01-05T18:27:19.111Z,17.83
2018-01-05T18:29:46.846Z,14.30
2018-01-05T18:32:14.652Z,12.75
2018-01-05T18:34:42.379Z,12.40
2018-01-05T18:37:10.872Z,12.95
2018-01-05T18:39:39.427Z,14.52
2018-01-05T18:42:07.151Z,14.63
2018-01-05T18:44:34.875Z,12.73
2018-01-05T18:47:03.440Z,12.75
2018-01-05T18:49:31.948Z,15.02
2018-01-05T18:51:59.672Z,10.35
2018-01-05T18:54:27.463Z,12.15
2018-01-05T18:56:55.188Z,12.23
2018-01-05T18:59:22.916Z,13.15
2018-01-05T19:01:50.698Z,13.62
2018-01-05T19:04:18.434Z,13.18
2018-01-05T19:06:46.174Z,11.27
2018-01-05T19:09:13.950Z,10.68
2018-01-05T19:11:41.674Z,11.85
2018-01-05T19:14:10.207Z,14.25
2018-01-05T19:16:38.013Z,8.77
2018-01-05T19:19:06.537Z,14.75
2018-01-05T19:21:34.281Z,15.55
2018-01-05T19:24:02.081Z,15.35
2018-01-05T19:26:29.825Z,10.95
2018-01-05T19:28:57.576Z,11.43
2018-01-05T19:31:25.384Z,12.98
2018-01-05T19:33:53.181Z,14.32
2018-01-05T19:36:20.927Z,18.25
2018-01-05T19:38:49.484Z,14.27
2018-01-05T19:41:17.241Z,16.65
2018-01-05T19:43:44.984Z,13.70
2018-01-05T19:46:12.790Z,16.98
2018-01-05T19:48:41.292Z,15.48
2018-01-05T19:51:09.025Z,17.17
2018-01-05T19:53:36.831Z,17.30
2018-01-05T19:56:04.591Z,19.50
2018-01-05T19:58:32.337Z,16.10
2018-01-05T20:01:00.246Z,18.17
2018-01-05T20:03:28.065Z,14.93
2018-01-05T20:05:55.812Z,19.15
2018-01-05T20:08:24.383Z,14.43
2018-01-05T20:10:52.915Z,15.57
2018-01-05T20:13:20.736Z,18.92
2018-01-05T20:15:49.311Z,16.98
2018-01-05T20:18:17.841Z,15.60
2018-01-05T20:20:45.590Z,14.93
2018-01-05T20:23:15.839Z,18.20
2018-01-05T20:25:43.685Z,18.42
2018-01-05T20:28:11.446Z,14.65
2018-01-05T20:30:39.270Z,16.80
2018-01-05T20:33:07.089Z,14.93
2018-01-05T20:35:34.853Z,21.55
2018-01-05T20:38:02.647Z,16.55
2018-01-05T20:40:31.191Z,16.02
2018-01-05T20:43:00.534Z,16.52
2018-01-05T20:45:29.281Z,17.25
2018-01-05T20:47:57.029Z,13.32
2018-01-05T20:50:24.767Z,18.90
2018-01-05T20:52:52.570Z,14.35
2018-01-05T20:55:20.340Z,14.87
2018-01-05T20:57:48.109Z,15.38
2018-01-05T21:00:15.915Z,17.80
2018-01-05T21:02:43.665Z,14.90
2018-01-05T21:05:11.423Z,13.82
2018-01-05T21:07:39.302Z,18.33
2018-01-05T21:10:07.110Z,15.73
2018-01-05T21:12:34.862Z,14.05
2018-01-05T21:15:02.724Z,19.98
2018-01-05T21:17:30.490Z,15.75
2018-01-05T21:19:58.232Z,18.77
2018-01-05T21:22:26.168Z,18.55
2018-01-05T21:24:55.189Z,20.77
2018-01-05T21:27:22.952Z,19.37
2018-01-05T21:29:51.947Z,22.17
2018-01-05T21:32:19.721Z,24.60
2018-01-05T21:34:47.500Z,21.52
2018-01-05T21:37:15.303Z,21.20
2018-01-05T21:39:43.049Z,20.35
2018-01-05T21:42:11.569Z,22.33
2018-01-05T21:44:39.365Z,26.05
2018-01-05T21:47:07.104Z,24.52
2018-01-05T21:49:34.859Z,23.80
2018-01-05T21:52:02.672Z,21.00
2018-01-05T21:54:31.230Z,25.10
2018-01-05T21:56:58.983Z,25.02
2018-01-05T21:59:26.773Z,23.70
2018-01-05T22:01:55.288Z,31.15
2018-01-05T22:04:23.333Z,31.55
2018-01-05T22:06:51.903Z,28.48
2018-01-05T22:09:19.655Z,26.45
2018-01-05T22:11:47.401Z,30.73
2018-01-05T22:14:15.661Z,30.52
2018-01-05T22:16:44.855Z,34.85
2018-01-05T22:19:12.583Z,32.28
2018-01-05T22:21:40.362Z,30.17
2018-01-05T22:24:08.166Z,31.62
2018-01-05T22:26:35.900Z,27.73
2018-01-05T22:29:03.685Z,43.17
2018-01-05T22:31:31.484Z,35.97
2018-01-05T22:33:59.228Z,33.42
2018-01-05T22:36:27.778Z,38.25
2018-01-05T22:38:56.658Z,45.53
2018-01-05T22:41:24.536Z,47.55
2018-01-05T22:43:52.378Z,38.03
2018-01-05T22:46:20.115Z,35.88
2018-01-05T22:48:47.875Z,38.42
2018-01-05T22:51:15.659Z,32.50
2018-01-05T22:53:43.395Z,31.83
2018-01-05T22:56:11.156Z,38.47
2018-01-05T22:58:38.943Z,44.42
2018-01-05T23:01:06.671Z,56.20
2018-01-05T23:03:34.408Z,35.55
2018-01-05T23:06:02.975Z,46.50
2018-01-05T23:08:30.719Z,39.95
2018-01-05T23:10:58.448Z,49.90
2018-01-05T23:13:26.227Z,48.08
2018-01-05T23:15:53.962Z,39.33
2018-01-05T23:18:21.724Z,49.00
2018-01-05T23:20:49.511Z,33.78
2018-01-05T23:23:17.239Z,34.58
2018-01-05T23:25:44.974Z,30.67
2018-01-05T23:28:12.756Z,37.38
2018-01-05T23:30:41.247Z,29.92
2018-01-05T23:33:08.977Z,40.97
2018-01-05T23:35:36.786Z,38.55
2018-01-05T23:38:04.510Z,33.60
2018-01-05T23:40:33.016Z,41.60
2018-01-05T23:43:00.808Z,36.88
2018-01-05T23:45:28.541Z,36.42
2018-01-05T23:47:56.272Z,32.83
2018-01-05T23:50:24.820Z,32.80
2018-01-05T23:52:52.547Z,26.50
2018-01-05T23:55:20.275Z,31.70
2018-01-05T23:57:48.991Z,30.42
